Accueil
METAR-TAF:

METAR-TAF

Aéroports :

Quimper, France

Aéroport de Quimper Cornouaille

latitude: 47-58N, longitude: 004-10W, altitude: 92 m

Observation

Le bulletin a été fait il y a 31 minutes, à 02:30 UTC
Vent 3 kt de ouest/nord-ouest
Température 14°C
Humidité 94%
Pression 1019 hPa
Visibilité: 0700 m
brouillard

METAR: LFRQ 240230Z AUTO 29003KT 0700 R28/0700D FG VV/// 14/13 Q1019

Heure: 05:01 (03:01 UTC)

Prévision

Le bulletin a été fait il y a 10 heures et 1 minutes, à 17:00 UTC
Prévision valable du 23 à 18 UTC au 24 à 03 UTC
Vent 10 kt de ouest/nord-ouest
Visibilité 10 km ou plus
Nuages fragmentés à une hauteur de 3000 ft

TAF: LFRQ 231700Z 2318/2403 30010KT 9999 BKN030

Observations et prévisions météorologiques de plus de 4000 aéroports (messages METAR et TAF).

Les stations disponibles sont représentées par des disques jaunes et rouges sur la carte.

Passer la souris dessus pour voir le nom de la station.

Cliquer dessus pour voir les observations et prévisions météorologiques.

Pour changer de carte: cliquez sur les boutons verts avec une croix noire pour zoomer, sur le bouton vert avec un tiret pour effectuer un zoom arrière, ou sur les flèches vertes pour les cartes adjacentes.


METAR-TAF: